Time;durP1;ratioP1;P1;durP2;ratioP2;P2;SDS_P1;SDS_P2;PMS_P1;PMS_P2;Temp;Humidity;BMP_temperature;BMP_pressure;BME280_temperature;BME280_humidity;BME280_pressure;Samples;Min_cycle;Max_cycle;Signal;HPM_P1;HPM_P2
2023/07/17 00:02:03;;;;;;;5.43;3.28;;;20.30;99.80;;;;;;5046107;28;20204;-31
2023/07/17 00:04:31;;;;;;;6.68;3.33;;;20.20;99.80;;;;;;5046499;28;21003;-31
2023/07/17 00:06:58;;;;;;;7.53;2.90;;;20.20;99.80;;;;;;5039702;28;20213;-31
2023/07/17 00:09:25;;;;;;;7.38;2.95;;;20.20;99.90;;;;;;5035805;28;20197;-31
2023/07/17 00:11:53;;;;;;;7.40;3.63;;;20.20;99.90;;;;;;5029530;28;20683;-31
2023/07/17 00:14:20;;;;;;;8.85;3.10;;;20.10;99.80;;;;;;5030335;28;20217;-31
2023/07/17 00:16:52;;;;;;;6.15;3.00;;;20.10;99.80;;;;;;5047237;28;20720;-30
2023/07/17 00:19:24;;;;;;;7.78;2.90;;;20.10;99.80;;;;;;5028718;28;20263;-31
2023/07/17 00:21:54;;;;;;;4.53;2.65;;;20.00;99.90;;;;;;5027942;28;20578;-31
2023/07/17 00:24:22;;;;;;;6.38;3.08;;;20.00;99.90;;;;;;5026665;28;20231;-31
2023/07/17 00:26:49;;;;;;;7.60;3.40;;;19.90;99.70;;;;;;5027455;28;20209;-31
2023/07/17 00:29:28;;;;;;;6.78;2.80;;;20.00;99.90;;;;;;5037750;28;20223;-31
2023/07/17 00:31:56;;;;;;;6.50;3.03;;;19.90;99.90;;;;;;5026607;28;20745;-31
2023/07/17 00:34:26;;;;;;;5.70;2.97;;;19.90;99.90;;;;;;5027293;28;20208;-31
2023/07/17 00:36:58;;;;;;;12.07;3.05;;;19.80;99.80;;;;;;5042825;28;20334;-31
2023/07/17 00:39:28;;;;;;;4.95;2.75;;;19.80;99.80;;;;;;5027684;28;20236;-31
2023/07/17 00:41:57;;;;;;;6.25;2.70;;;19.80;99.90;;;;;;5028271;28;20236;-29
2023/07/17 00:44:25;;;;;;;7.50;3.22;;;19.80;99.80;;;;;;5024805;28;20951;-28
2023/07/17 00:46:53;;;;;;;5.18;2.70;;;19.90;99.90;;;;;;5033539;28;20200;-28
2023/07/17 00:49:23;;;;;;;7.38;3.03;;;19.90;99.90;;;;;;5041994;28;20263;-28
2023/07/17 00:51:55;;;;;;;6.00;2.88;;;19.80;99.90;;;;;;5033051;28;20284;-28
2023/07/17 00:54:28;;;;;;;8.38;2.85;;;19.70;99.80;;;;;;5027901;28;20598;-29
2023/07/17 00:57:03;;;;;;;7.07;2.58;;;19.80;99.80;;;;;;5027319;28;20209;-28
2023/07/17 00:59:35;;;;;;;5.40;2.35;;;19.80;99.90;;;;;;5032528;28;20237;-28
2023/07/17 01:02:08;;;;;;;7.13;2.58;;;19.70;99.80;;;;;;5031857;28;20749;-28
2023/07/17 01:04:38;;;;;;;6.75;2.58;;;19.60;99.80;;;;;;5027920;28;20229;-28
2023/07/17 01:07:06;;;;;;;5.97;2.75;;;19.60;99.90;;;;;;5032833;28;20318;-28
2023/07/17 01:09:33;;;;;;;6.70;3.00;;;19.60;99.90;;;;;;5040813;28;20286;-28
2023/07/17 01:12:05;;;;;;;4.40;2.67;;;19.60;99.90;;;;;;5033423;28;20204;-28
2023/07/17 01:14:35;;;;;;;6.38;3.17;;;19.60;99.90;;;;;;5045794;28;20232;-29
2023/07/17 01:17:07;;;;;;;4.95;2.80;;;19.50;99.90;;;;;;5031271;28;20223;-29
2023/07/17 01:19:37;;;;;;;6.28;2.95;;;19.50;99.90;;;;;;5044531;28;20212;-28
2023/07/17 01:22:19;;;;;;;6.43;2.83;;;19.50;99.90;;;;;;5043296;28;20242;-28
2023/07/17 01:24:49;;;;;;;5.53;2.70;;;19.50;99.90;;;;;;5045728;28;20412;-28
2023/07/17 01:27:19;;;;;;;4.68;2.90;;;19.70;99.90;;;;;;5041930;28;20246;-29
2023/07/17 01:29:49;;;;;;;7.72;2.95;;;19.70;99.90;;;;;;5025510;28;20201;-28
2023/07/17 01:32:20;;;;;;;5.70;2.45;;;19.60;99.90;;;;;;5032115;28;20295;-28
2023/07/17 01:34:47;;;;;;;5.57;2.50;;;19.60;99.90;;;;;;5045293;28;20532;-28
2023/07/17 01:37:14;;;;;;;5.43;2.72;;;19.50;99.90;;;;;;5040074;28;20299;-28
2023/07/17 01:39:44;;;;;;;5.20;2.70;;;19.50;99.90;;;;;;5026068;28;20650;-28
2023/07/17 01:42:13;;;;;;;5.40;2.58;;;19.40;99.90;;;;;;5026277;28;20229;-28
2023/07/17 01:44:40;;;;;;;5.18;2.53;;;19.40;99.90;;;;;;5027237;28;20600;-28
2023/07/17 01:47:08;;;;;;;6.10;2.95;;;19.30;99.90;;;;;;5027301;28;20225;-28
2023/07/17 01:49:35;;;;;;;7.75;2.60;;;19.30;99.90;;;;;;5046108;28;20196;-28
2023/07/17 01:52:05;;;;;;;5.60;2.30;;;19.30;99.90;;;;;;5026921;28;20239;-28
2023/07/17 01:54:32;;;;;;;5.88;2.60;;;19.20;99.90;;;;;;5026387;28;20252;-28
2023/07/17 01:57:01;;;;;;;5.18;2.60;;;19.20;99.90;;;;;;5026415;28;20204;-28
2023/07/17 01:59:28;;;;;;;5.20;2.90;;;19.10;99.90;;;;;;5039728;28;21041;-28
2023/07/17 02:02:00;;;;;;;6.55;2.80;;;19.10;99.90;;;;;;5043582;28;20226;-28
2023/07/17 02:04:28;;;;;;;6.22;2.88;;;19.10;99.90;;;;;;5025635;28;20416;-28
2023/07/17 02:07:00;;;;;;;4.00;2.50;;;19.30;99.90;;;;;;5027374;28;20217;-29
2023/07/17 02:09:27;;;;;;;5.60;2.05;;;19.20;99.90;;;;;;5029352;28;20238;-28
2023/07/17 02:11:56;;;;;;;7.30;2.40;;;19.10;99.90;;;;;;5046874;28;20651;-28
2023/07/17 02:14:26;;;;;;;4.85;2.60;;;19.10;99.90;;;;;;5041945;28;20204;-28
2023/07/17 02:16:56;;;;;;;6.78;3.08;;;19.00;99.90;;;;;;5042982;28;20257;-28
2023/07/17 02:19:26;;;;;;;7.97;3.08;;;18.90;99.90;;;;;;5034529;28;20420;-28
2023/07/17 02:21:53;;;;;;;7.20;3.50;;;19.10;99.90;;;;;;5028748;28;20240;-28
2023/07/17 02:24:20;;;;;;;4.93;2.60;;;19.10;99.90;;;;;;5027023;28;20741;-28
2023/07/17 02:26:48;;;;;;;5.40;2.88;;;19.00;99.90;;;;;;5023671;28;20424;-28
2023/07/17 02:29:18;;;;;;;6.93;2.72;;;19.20;99.90;;;;;;5030229;28;20254;-28
2023/07/17 02:31:45;;;;;;;6.85;2.30;;;19.10;99.90;;;;;;5043450;28;20200;-28
2023/07/17 02:34:12;;;;;;;5.40;2.47;;;19.00;99.90;;;;;;5042615;28;20395;-28
2023/07/17 02:36:42;;;;;;;6.47;2.90;;;19.20;99.90;;;;;;5024263;28;20213;-28
2023/07/17 02:39:11;;;;;;;6.38;2.60;;;19.10;99.90;;;;;;5025970;28;20299;-28
2023/07/17 02:41:44;;;;;;;5.93;2.47;;;19.00;99.90;;;;;;5026331;28;20211;-28
2023/07/17 02:44:14;;;;;;;7.13;2.53;;;18.90;99.90;;;;;;5026269;28;20291;-28
2023/07/17 02:46:41;;;;;;;3.97;2.20;;;18.80;99.90;;;;;;5025585;28;20213;-28
2023/07/17 02:49:13;;;;;;;4.28;2.35;;;18.80;99.90;;;;;;5030900;28;20193;-28
2023/07/17 02:51:41;;;;;;;4.90;2.38;;;18.70;99.90;;;;;;5025528;28;20201;-28
2023/07/17 02:54:08;;;;;;;7.82;2.55;;;18.70;99.90;;;;;;5044259;28;20213;-28
2023/07/17 02:56:39;;;;;;;6.05;2.40;;;18.60;99.90;;;;;;5041835;28;20214;-28
2023/07/17 02:59:11;;;;;;;5.30;2.65;;;18.60;99.90;;;;;;5025716;28;20259;-28
2023/07/17 03:01:38;;;;;;;6.25;2.58;;;18.60;99.90;;;;;;5036032;28;20208;-28
2023/07/17 03:04:08;;;;;;;3.88;2.13;;;18.50;99.90;;;;;;5043459;28;20639;-28
2023/07/17 03:06:37;;;;;;;5.75;2.35;;;18.50;99.90;;;;;;5035907;28;20683;-28
2023/07/17 03:09:05;;;;;;;4.68;2.13;;;18.40;99.90;;;;;;5029991;28;20201;-28
2023/07/17 03:11:37;;;;;;;5.85;2.63;;;18.40;99.90;;;;;;5023036;28;20394;-29
2023/07/17 03:14:04;;;;;;;4.88;2.25;;;18.60;99.90;;;;;;5029873;28;20589;-28
2023/07/17 03:16:34;;;;;;;5.33;2.50;;;18.50;99.90;;;;;;5033577;28;20414;-28
2023/07/17 03:19:04;;;;;;;4.78;2.67;;;18.70;99.90;;;;;;5033218;28;20551;-28
2023/07/17 03:21:31;;;;;;;4.57;2.45;;;18.60;99.90;;;;;;5045654;28;20217;-28
2023/07/17 03:24:04;;;;;;;5.80;2.22;;;18.50;99.90;;;;;;5029722;28;20228;-29
2023/07/17 03:26:34;;;;;;;4.88;2.50;;;18.40;99.90;;;;;;5028392;28;20233;-28
2023/07/17 03:29:04;;;;;;;5.00;2.22;;;18.40;99.90;;;;;;5029073;28;20632;-28
2023/07/17 03:31:31;;;;;;;6.15;2.28;;;18.30;99.90;;;;;;5028796;28;20208;-28
2023/07/17 03:34:01;;;;;;;7.80;2.50;;;18.20;99.90;;;;;;5041451;28;20601;-28
2023/07/17 03:36:30;;;;;;;4.43;2.13;;;18.20;99.90;;;;;;5045848;28;20663;-28
2023/07/17 03:38:57;;;;;;;8.70;2.20;;;18.10;99.90;;;;;;5049261;28;20244;-28
2023/07/17 03:41:24;;;;;;;3.38;2.35;;;18.10;99.90;;;;;;5042247;28;20209;-28
2023/07/17 03:43:56;;;;;;;6.38;2.28;;;18.10;99.90;;;;;;5036295;28;20220;-28
2023/07/17 03:46:30;;;;;;;3.75;2.38;;;18.00;99.90;;;;;;5039564;28;20224;-28
2023/07/17 03:48:57;;;;;;;7.03;2.60;;;18.00;99.90;;;;;;5043921;28;20299;-28
2023/07/17 03:51:24;;;;;;;3.80;2.15;;;18.00;99.90;;;;;;5037660;28;20266;-28
2023/07/17 03:53:51;;;;;;;4.72;2.10;;;18.00;99.90;;;;;;5033866;28;20188;-29
2023/07/17 03:56:21;;;;;;;5.72;2.38;;;17.90;99.90;;;;;;5029339;28;20227;-28
2023/07/17 03:58:51;;;;;;;4.75;2.25;;;17.90;99.90;;;;;;5028911;28;20201;-28
2023/07/17 04:01:18;;;;;;;3.60;2.05;;;17.90;99.90;;;;;;5042122;28;20653;-28
2023/07/17 04:03:48;;;;;;;8.93;2.13;;;17.90;99.90;;;;;;5046017;28;20202;-28
2023/07/17 04:06:18;;;;;;;4.88;2.42;;;17.90;99.90;;;;;;5044844;28;20632;-28
2023/07/17 04:08:45;;;;;;;3.13;2.03;;;17.90;99.90;;;;;;5033976;28;20618;-28
2023/07/17 04:11:17;;;;;;;6.70;2.22;;;17.90;99.90;;;;;;5028333;28;20205;-28
2023/07/17 04:13:45;;;;;;;6.15;2.30;;;17.80;99.90;;;;;;5040558;28;20224;-29
2023/07/17 04:16:13;;;;;;;4.45;2.53;;;17.80;99.90;;;;;;5046843;28;20220;-28
2023/07/17 04:18:41;;;;;;;6.93;2.40;;;17.90;99.90;;;;;;5045576;28;20769;-29
2023/07/17 04:21:08;;;;;;;3.97;2.42;;;17.80;99.90;;;;;;5040262;28;20627;-28
2023/07/17 04:23:35;;;;;;;7.00;2.33;;;17.80;99.90;;;;;;5046598;28;20212;-28
2023/07/17 04:26:05;;;;;;;5.38;2.45;;;17.80;99.90;;;;;;5028897;28;20237;-28
2023/07/17 04:28:32;;;;;;;7.13;2.70;;;17.80;99.90;;;;;;5040873;28;20212;-29
2023/07/17 04:31:08;;;;;;;8.10;2.40;;;17.80;99.90;;;;;;5044332;28;20224;-28
2023/07/17 04:33:35;;;;;;;5.13;2.50;;;17.80;99.90;;;;;;5044287;28;20716;-29
2023/07/17 04:36:07;;;;;;;4.40;2.30;;;17.80;99.90;;;;;;5039235;28;20215;-29
2023/07/17 04:38:34;;;;;;;5.53;2.50;;;17.90;99.90;;;;;;5048221;28;20239;-28
2023/07/17 04:41:02;;;;;;;8.83;2.60;;;17.80;99.90;;;;;;5036803;28;20286;-28
2023/07/17 04:43:35;;;;;;;8.07;2.47;;;17.90;99.90;;;;;;5025024;28;20665;-31
2023/07/17 04:46:03;;;;;;;4.35;2.20;;;17.90;99.90;;;;;;5032219;28;20720;-28
2023/07/17 04:48:30;;;;;;;7.15;2.58;;;17.90;99.90;;;;;;5041519;28;20295;-28
2023/07/17 04:51:02;;;;;;;8.10;2.45;;;17.90;99.90;;;;;;5035375;28;20587;-28
2023/07/17 04:53:30;;;;;;;4.70;2.63;;;17.90;99.90;;;;;;5041668;28;20209;-28
2023/07/17 04:56:02;;;;;;;7.32;2.70;;;17.90;99.90;;;;;;5033462;28;20228;-28
2023/07/17 04:58:32;;;;;;;6.10;2.50;;;17.90;99.90;;;;;;5031832;28;20240;-28
2023/07/17 05:01:04;;;;;;;7.13;2.95;;;17.90;99.90;;;;;;5026058;28;20786;-28
2023/07/17 05:03:36;;;;;;;5.95;2.88;;;17.90;99.90;;;;;;5039651;28;20288;-28
2023/07/17 05:06:06;;;;;;;5.22;2.95;;;17.90;99.90;;;;;;5034040;28;20248;-28
2023/07/17 05:08:35;;;;;;;5.03;2.60;;;17.90;99.90;;;;;;5034384;28;20204;-28
2023/07/17 05:11:05;;;;;;;5.70;2.70;;;17.90;99.90;;;;;;5038754;28;20330;-28
2023/07/17 05:13:34;;;;;;;7.15;3.08;;;18.00;99.90;;;;;;5043845;28;20193;-28
2023/07/17 05:16:02;;;;;;;5.00;2.80;;;18.00;99.90;;;;;;5028705;28;20220;-28
2023/07/17 05:18:35;;;;;;;6.05;3.00;;;18.00;99.90;;;;;;5044395;28;20563;-28
2023/07/17 05:21:05;;;;;;;6.35;3.38;;;18.10;99.90;;;;;;5029359;28;20220;-28
2023/07/17 05:23:35;;;;;;;12.95;3.08;;;18.10;99.90;;;;;;5026578;28;20602;-28
2023/07/17 05:26:05;;;;;;;4.85;2.40;;;18.10;99.90;;;;;;5026717;28;20228;-28
2023/07/17 05:28:37;;;;;;;4.82;2.83;;;18.10;99.90;;;;;;5026558;28;20246;-28
2023/07/17 05:31:09;;;;;;;7.60;3.08;;;18.20;99.90;;;;;;5026844;28;20633;-28
2023/07/17 05:33:36;;;;;;;6.20;2.63;;;18.20;99.90;;;;;;5024218;28;20225;-28
2023/07/17 05:36:06;;;;;;;6.88;3.17;;;18.20;99.90;;;;;;5031625;28;20210;-29
2023/07/17 05:38:38;;;;;;;5.35;3.03;;;18.20;99.90;;;;;;5038453;28;20793;-28
2023/07/17 05:41:10;;;;;;;9.07;3.60;;;18.20;99.90;;;;;;5040232;28;20215;-28
2023/07/17 05:43:39;;;;;;;5.53;3.00;;;18.30;99.90;;;;;;5025064;28;20204;-28
2023/07/17 05:46:06;;;;;;;7.03;3.08;;;18.30;99.90;;;;;;5026448;28;20611;-28
2023/07/17 05:48:34;;;;;;;6.13;3.60;;;18.30;99.90;;;;;;5039414;28;20213;-28
2023/07/17 05:51:01;;;;;;;7.90;3.45;;;18.40;99.90;;;;;;5031401;28;20203;-28
2023/07/17 05:53:31;;;;;;;7.53;4.00;;;18.40;99.90;;;;;;5032362;28;20612;-28
2023/07/17 05:56:00;;;;;;;5.38;3.47;;;18.40;99.90;;;;;;5044184;28;20246;-28
2023/07/17 05:58:28;;;;;;;4.68;3.30;;;18.40;99.90;;;;;;5026351;28;20757;-28
2023/07/17 06:00:55;;;;;;;8.23;3.88;;;18.50;99.90;;;;;;5030077;28;20241;-30
2023/07/17 06:03:25;;;;;;;7.82;4.07;;;18.50;99.90;;;;;;5044530;28;20208;-31
2023/07/17 06:05:55;;;;;;;7.63;3.72;;;18.50;99.90;;;;;;5035200;28;20680;-31
2023/07/17 06:08:22;;;;;;;7.05;4.05;;;18.60;99.90;;;;;;5029627;28;20753;-31
2023/07/17 06:10:54;;;;;;;8.02;4.32;;;18.60;99.90;;;;;;5040881;28;20248;-31
2023/07/17 06:13:24;;;;;;;9.13;4.53;;;18.60;99.90;;;;;;5021084;28;20693;-31
2023/07/17 06:15:55;;;;;;;8.30;4.50;;;18.60;99.90;;;;;;5043210;28;20207;-28
2023/07/17 06:18:24;;;;;;;10.95;4.95;;;18.70;99.90;;;;;;5037211;28;20212;-28
2023/07/17 06:20:52;;;;;;;9.80;5.22;;;18.70;99.90;;;;;;5025990;28;20241;-28
2023/07/17 06:23:24;;;;;;;7.65;4.68;;;18.70;99.90;;;;;;5029684;28;20229;-28
2023/07/17 06:25:57;;;;;;;8.13;4.95;;;18.80;99.90;;;;;;5025499;28;20228;-28
2023/07/17 06:28:27;;;;;;;8.73;4.60;;;18.80;99.90;;;;;;5028759;28;20263;-28
2023/07/17 06:30:59;;;;;;;11.40;5.10;;;18.80;99.90;;;;;;5037535;28;20227;-28
2023/07/17 06:33:34;;;;;;;10.50;5.45;;;18.80;99.90;;;;;;5042704;28;20197;-28
2023/07/17 06:36:04;;;;;;;9.30;5.47;;;18.80;99.90;;;;;;5035581;28;20584;-28
2023/07/17 06:38:34;;;;;;;7.93;5.65;;;18.90;99.90;;;;;;5029330;28;20236;-28
2023/07/17 06:41:06;;;;;;;12.98;6.47;;;18.90;99.90;;;;;;5030387;28;20209;-31
2023/07/17 06:43:39;;;;;;;11.15;5.93;;;18.90;99.90;;;;;;5033985;28;20597;-31
2023/07/17 06:46:09;;;;;;;12.38;6.90;;;19.00;99.90;;;;;;5036150;28;20666;-31
2023/07/17 06:48:38;;;;;;;8.70;5.68;;;19.00;99.90;;;;;;5044250;28;20209;-31
2023/07/17 06:51:06;;;;;;;11.07;6.72;;;19.00;99.90;;;;;;5037196;28;20211;-28
2023/07/17 06:53:35;;;;;;;10.18;6.40;;;19.00;99.90;;;;;;5030323;28;20196;-28
2023/07/17 06:56:06;;;;;;;9.35;6.22;;;19.00;99.90;;;;;;5041557;28;20212;-28
2023/07/17 06:58:33;;;;;;;10.98;6.75;;;19.10;99.90;;;;;;5050799;28;20200;-28
2023/07/17 07:01:01;;;;;;;12.77;6.88;;;19.20;99.90;;;;;;5049404;28;20694;-28
2023/07/17 07:03:31;;;;;;;11.00;7.13;;;19.20;99.90;;;;;;5043121;28;20212;-28
2023/07/17 07:06:01;;;;;;;11.10;6.63;;;19.30;99.90;;;;;;5040909;28;20224;-28
2023/07/17 07:08:32;;;;;;;14.27;6.70;;;19.40;99.90;;;;;;5038355;28;20662;-28
2023/07/17 07:11:02;;;;;;;11.95;7.03;;;19.40;99.90;;;;;;5045615;28;20709;-28
2023/07/17 07:13:34;;;;;;;11.73;7.03;;;19.50;99.90;;;;;;5046602;28;20212;-25
2023/07/17 07:16:01;;;;;;;12.80;7.10;;;19.60;99.90;;;;;;5033523;28;20200;-32
2023/07/17 07:18:28;;;;;;;11.77;6.75;;;19.70;99.90;;;;;;5029960;28;20670;-32
2023/07/17 07:21:00;;;;;;;14.73;8.10;;;19.70;99.90;;;;;;5026586;28;20205;-32
2023/07/17 07:23:28;;;;;;;11.27;7.75;;;19.80;99.90;;;;;;5043229;28;20223;-32
2023/07/17 07:25:55;;;;;;;14.90;8.25;;;19.80;99.90;;;;;;5040995;28;20224;-25
2023/07/17 07:28:22;;;;;;;13.25;7.78;;;19.90;99.90;;;;;;5029149;28;20232;-25
2023/07/17 07:30:57;;;;;;;12.20;7.32;;;19.90;99.90;;;;;;5034991;28;20200;-25
2023/07/17 07:33:27;;;;;;;16.13;8.20;;;20.00;99.90;;;;;;5036514;28;20247;-32
2023/07/17 07:35:54;;;;;;;15.25;7.88;;;20.00;99.90;;;;;;5031765;28;20208;-31
2023/07/17 07:38:26;;;;;;;13.20;7.55;;;20.10;99.90;;;;;;5029653;28;20243;-31
2023/07/17 07:40:55;;;;;;;12.55;7.95;;;20.10;99.90;;;;;;5033303;28;20227;-32
2023/07/17 07:43:23;;;;;;;13.73;7.43;;;20.10;99.90;;;;;;5032886;28;20686;-32
2023/07/17 07:45:50;;;;;;;13.85;7.53;;;20.10;99.90;;;;;;5033499;28;20201;-32
2023/07/17 07:48:17;;;;;;;11.93;7.63;;;20.20;99.90;;;;;;5041767;28;20204;-26
2023/07/17 07:50:46;;;;;;;11.85;7.38;;;20.20;99.90;;;;;;5036035;28;20231;-31
2023/07/17 07:53:13;;;;;;;9.45;7.35;;;20.20;99.90;;;;;;5029265;28;20220;-32
2023/07/17 07:55:43;;;;;;;13.02;8.23;;;20.20;99.90;;;;;;5030696;28;20208;-32
2023/07/17 07:58:13;;;;;;;15.48;7.85;;;20.20;99.90;;;;;;5042156;28;20195;-32
2023/07/17 08:00:40;;;;;;;19.02;8.43;;;20.20;99.90;;;;;;5027634;28;20677;-33
2023/07/17 08:03:07;;;;;;;14.65;7.30;;;20.30;99.90;;;;;;5042896;28;20740;-32
2023/07/17 08:05:37;;;;;;;15.20;7.93;;;20.20;99.90;;;;;;5054423;28;20204;-32
2023/07/17 08:08:10;;;;;;;12.30;7.18;;;20.20;99.90;;;;;;5036599;28;20221;-25
2023/07/17 08:10:39;;;;;;;15.23;7.40;;;20.30;99.90;;;;;;5027833;28;20568;-25
2023/07/17 08:13:09;;;;;;;13.45;7.90;;;20.30;99.90;;;;;;5028223;28;20216;-25
2023/07/17 08:15:36;;;;;;;13.02;7.00;;;20.30;99.90;;;;;;5041785;28;20623;-25
2023/07/17 08:18:09;;;;;;;11.45;7.35;;;20.30;99.90;;;;;;5030600;28;20205;-25
2023/07/17 08:20:37;;;;;;;9.25;5.90;;;20.30;99.90;;;;;;5034603;28;20201;-25
2023/07/17 08:23:06;;;;;;;9.52;5.53;;;20.40;99.90;;;;;;5037860;28;20753;-25
2023/07/17 08:25:34;;;;;;;9.95;6.10;;;20.40;99.90;;;;;;5034878;28;20213;-25
2023/07/17 08:28:04;;;;;;;9.23;6.32;;;20.50;99.90;;;;;;5036742;28;20283;-25
2023/07/17 08:30:34;;;;;;;8.50;5.70;;;20.40;99.90;;;;;;5036877;28;20670;-25
2023/07/17 08:33:04;;;;;;;18.92;6.70;;;20.50;99.90;;;;;;5039348;28;20267;-25
2023/07/17 08:35:31;;;;;;;11.93;6.28;;;20.50;99.90;;;;;;5035994;28;20212;-25
2023/07/17 08:38:01;;;;;;;9.07;5.60;;;20.60;99.90;;;;;;5034116;28;20631;-25
2023/07/17 08:40:28;;;;;;;8.45;5.80;;;20.60;99.90;;;;;;5030109;28;20220;-25
2023/07/17 08:42:59;;;;;;;7.20;5.22;;;20.70;99.90;;;;;;5027925;28;20213;-25
2023/07/17 08:45:31;;;;;;;7.97;5.28;;;20.70;99.90;;;;;;5041674;28;20217;-25
2023/07/17 08:48:04;;;;;;;9.55;5.47;;;20.80;99.90;;;;;;5041900;28;20752;-25
2023/07/17 08:50:37;;;;;;;10.18;5.80;;;20.90;99.90;;;;;;5030832;28;20203;-24
2023/07/17 08:53:09;;;;;;;11.95;5.68;;;20.90;99.90;;;;;;5029418;28;20205;-25
2023/07/17 08:55:38;;;;;;;9.57;5.85;;;20.90;99.90;;;;;;5032250;28;20212;-25
2023/07/17 08:58:06;;;;;;;11.20;5.45;;;21.00;99.90;;;;;;5026048;28;20201;-25
2023/07/17 09:00:36;;;;;;;10.50;5.55;;;21.10;99.90;;;;;;5039268;28;20213;-32
2023/07/17 09:03:07;;;;;;;9.38;5.72;;;21.10;99.90;;;;;;5044801;28;20212;-32
2023/07/17 09:05:39;;;;;;;9.43;5.95;;;21.10;99.90;;;;;;5027771;28;20205;-31
2023/07/17 09:08:06;;;;;;;11.45;6.13;;;21.20;99.90;;;;;;5026832;28;20263;-31
2023/07/17 09:10:35;;;;;;;9.73;5.97;;;21.20;99.90;;;;;;5039689;28;20203;-32
2023/07/17 09:13:05;;;;;;;11.10;6.00;;;21.20;99.90;;;;;;5034242;28;20212;-32
2023/07/17 09:15:33;;;;;;;10.23;6.28;;;21.30;99.90;;;;;;5031646;28;20201;-32
2023/07/17 09:18:03;;;;;;;7.85;5.90;;;21.30;99.90;;;;;;5035982;28;20726;-32
2023/07/17 09:20:31;;;;;;;8.57;5.53;;;21.30;99.90;;;;;;5037292;28;20236;-32
2023/07/17 09:23:03;;;;;;;10.68;5.70;;;21.30;99.90;;;;;;5026950;28;20204;-32
2023/07/17 09:25:31;;;;;;;9.55;5.82;;;21.40;99.90;;;;;;5032801;28;20230;-32
2023/07/17 09:28:02;;;;;;;6.88;5.40;;;21.40;99.90;;;;;;5038569;28;20232;-32
2023/07/17 09:30:40;;;;;;;8.27;5.63;;;21.50;99.90;;;;;;5033055;28;20218;-32
2023/07/17 09:33:08;;;;;;;10.60;5.82;;;21.50;99.90;;;;;;5040524;28;21561;-32
2023/07/17 09:35:37;;;;;;;8.32;5.10;;;21.70;99.90;;;;;;5028856;28;20205;-31
2023/07/17 09:38:13;;;;;;;9.77;5.22;;;21.70;99.90;;;;;;5029221;28;20344;-32
2023/07/17 09:40:40;;;;;;;8.73;5.80;;;21.80;99.90;;;;;;5038048;28;20204;-32
2023/07/17 09:43:07;;;;;;;7.80;5.57;;;21.80;99.90;;;;;;5028503;28;20209;-32
2023/07/17 09:45:40;;;;;;;7.53;5.57;;;21.80;99.90;;;;;;5029076;28;20638;-32
2023/07/17 09:48:14;;;;;;;9.88;5.43;;;21.90;99.90;;;;;;5035504;28;20226;-32
2023/07/17 09:50:41;;;;;;;6.03;5.00;;;21.90;99.90;;;;;;5040010;28;20338;-32
2023/07/17 09:53:12;;;;;;;12.40;5.75;;;22.00;99.90;;;;;;5037867;28;20196;-32
2023/07/17 09:55:44;;;;;;;7.63;5.60;;;22.00;99.90;;;;;;5027269;28;20209;-27
2023/07/17 09:58:17;;;;;;;7.63;5.15;;;22.10;99.90;;;;;;5036231;28;20238;-27
2023/07/17 10:00:47;;;;;;;11.32;5.63;;;22.10;99.90;;;;;;5036506;28;20319;-27
2023/07/17 10:03:17;;;;;;;8.32;4.95;;;22.20;99.90;;;;;;5028061;28;20663;-27
2023/07/17 10:05:51;;;;;;;8.45;5.28;;;22.20;99.90;;;;;;5038078;28;20287;-27
2023/07/17 10:08:22;;;;;;;7.22;4.88;;;22.20;99.90;;;;;;5026642;28;20221;-27
2023/07/17 10:10:49;;;;;;;7.53;5.20;;;22.30;99.90;;;;;;5036692;28;20239;-27
2023/07/17 10:13:19;;;;;;;8.45;5.18;;;22.30;99.90;;;;;;5035150;28;20306;-27
2023/07/17 10:15:47;;;;;;;8.40;5.13;;;22.30;99.90;;;;;;5027712;28;20197;-27
2023/07/17 10:18:19;;;;;;;7.15;4.97;;;22.40;99.90;;;;;;5038647;28;20577;-27
2023/07/17 10:20:55;;;;;;;8.88;5.18;;;22.40;99.90;;;;;;5037223;28;20210;-27
2023/07/17 10:23:26;;;;;;;9.02;5.50;;;22.50;99.90;;;;;;5033960;28;20285;-27
2023/07/17 10:26:10;;;;;;;9.68;5.35;;;22.60;99.90;;;;;;5030051;28;20208;-27
2023/07/17 10:28:38;;;;;;;10.02;5.60;;;22.70;99.90;;;;;;5028616;28;20224;-27
2023/07/17 10:31:11;;;;;;;10.60;5.03;;;22.70;99.90;;;;;;5046496;28;20724;-27
2023/07/17 10:33:41;;;;;;;8.52;5.28;;;22.80;99.90;;;;;;5029002;28;20270;-27
2023/07/17 10:36:12;;;;;;;7.55;5.45;;;22.80;99.90;;;;;;5034584;28;20745;-27
2023/07/17 10:38:49;;;;;;;6.45;4.80;;;22.90;99.90;;;;;;5038923;28;20239;-27
2023/07/17 10:41:17;;;;;;;6.70;4.80;;;22.90;99.90;;;;;;5040723;28;20326;-27
2023/07/17 10:43:57;;;;;;;7.72;4.72;;;23.00;99.90;;;;;;5038453;28;20316;-27
2023/07/17 10:46:49;;;;;;;8.10;5.00;;;23.00;99.90;;;;;;5033612;28;20228;-27
2023/07/17 10:49:19;;;;;;;8.65;5.07;;;23.00;99.90;;;;;;5032643;28;20269;-27
2023/07/17 10:51:49;;;;;;;8.00;4.85;;;23.10;99.90;;;;;;5037043;28;20722;-27
2023/07/17 10:54:18;;;;;;;7.85;5.15;;;23.10;99.90;;;;;;5036296;28;20205;-27
2023/07/17 10:56:47;;;;;;;9.50;5.30;;;23.20;99.90;;;;;;5032820;28;20330;-27
2023/07/17 10:59:17;;;;;;;6.65;4.70;;;23.20;99.90;;;;;;5036460;28;20224;-27
2023/07/17 11:01:45;;;;;;;7.47;5.45;;;23.30;99.90;;;;;;5029687;28;20565;-27
2023/07/17 11:04:13;;;;;;;8.02;4.85;;;23.60;99.90;;;;;;5032557;28;20208;-27
2023/07/17 11:06:42;;;;;;;5.82;4.93;;;23.60;99.90;;;;;;5036442;28;20218;-27
2023/07/17 11:09:09;;;;;;;8.25;5.10;;;23.70;99.90;;;;;;5036117;28;20708;-26
2023/07/17 11:11:41;;;;;;;7.97;4.88;;;23.70;99.90;;;;;;5037271;28;20200;-27
2023/07/17 11:14:14;;;;;;;7.10;4.90;;;23.70;99.90;;;;;;5033436;28;20867;-27
2023/07/17 11:16:42;;;;;;;8.20;4.70;;;23.70;99.90;;;;;;5034650;28;20200;-32
2023/07/17 11:19:11;;;;;;;6.95;4.60;;;23.70;99.90;;;;;;5039213;28;20770;-32
2023/07/17 11:21:39;;;;;;;6.50;4.45;;;23.70;99.90;;;;;;5030165;28;20200;-32
2023/07/17 11:24:07;;;;;;;7.70;4.82;;;23.70;99.90;;;;;;5029860;28;20215;-32
2023/07/17 11:26:39;;;;;;;7.38;5.00;;;23.70;99.90;;;;;;5026589;28;20201;-31
2023/07/17 11:29:11;;;;;;;8.07;5.18;;;23.70;99.80;;;;;;5036491;28;20211;-31
2023/07/17 11:31:44;;;;;;;6.05;4.40;;;23.70;99.80;;;;;;5026301;28;20220;-31
2023/07/17 11:34:14;;;;;;;9.02;4.65;;;23.70;99.90;;;;;;5033924;28;20211;-32
2023/07/17 11:36:45;;;;;;;7.47;4.93;;;23.70;99.90;;;;;;5029632;28;20401;-31
2023/07/17 11:39:21;;;;;;;6.80;4.20;;;23.80;99.70;;;;;;5023712;28;20507;-32
2023/07/17 11:41:52;;;;;;;7.03;4.68;;;23.80;99.80;;;;;;5033405;28;20243;-32
2023/07/17 11:44:29;;;;;;;7.07;4.55;;;23.90;99.90;;;;;;5046870;28;20586;-32
2023/07/17 11:46:58;;;;;;;5.95;4.13;;;23.90;99.80;;;;;;5046805;28;20630;-32
2023/07/17 11:49:28;;;;;;;8.40;4.78;;;23.90;99.90;;;;;;5033512;28;20587;-32
2023/07/17 11:51:56;;;;;;;6.20;4.35;;;23.90;99.60;;;;;;5027691;28;20254;-31
2023/07/17 11:54:40;;;;;;;7.45;4.60;;;24.00;99.80;;;;;;5044510;28;20205;-31
2023/07/17 11:57:08;;;;;;;6.18;3.97;;;24.00;99.90;;;;;;5048356;28;20204;-31
2023/07/17 11:59:38;;;;;;;8.27;4.75;;;24.10;99.90;;;;;;5032919;28;20209;-32
2023/07/17 12:02:05;;;;;;;6.60;4.50;;;24.20;99.90;;;;;;5038667;28;20692;-31
2023/07/17 12:04:38;;;;;;;7.25;4.10;;;24.20;99.90;;;;;;5046230;28;20211;-31
2023/07/17 12:07:15;;;;;;;7.53;4.38;;;24.30;99.90;;;;;;5034700;28;20493;-31
2023/07/17 12:09:46;;;;;;;6.35;4.30;;;24.30;99.80;;;;;;5027598;28;20208;-32
2023/07/17 12:12:13;;;;;;;5.00;3.90;;;24.30;99.90;;;;;;5025956;28;20728;-31
2023/07/17 12:14:43;;;;;;;4.72;3.83;;;24.30;99.80;;;;;;5026231;28;20212;-32
2023/07/17 12:17:10;;;;;;;7.22;4.50;;;24.30;99.90;;;;;;5026037;28;20411;-31
2023/07/17 12:19:42;;;;;;;9.02;5.05;;;24.50;99.90;;;;;;5027492;28;20299;-29
2023/07/17 12:22:12;;;;;;;7.72;4.63;;;24.30;99.90;;;;;;5027861;28;20211;-28
2023/07/17 12:24:42;;;;;;;6.68;4.18;;;24.10;99.90;;;;;;5036873;28;20224;-29
2023/07/17 12:27:09;;;;;;;9.65;4.32;;;24.00;99.90;;;;;;5047262;28;20315;-29
2023/07/17 12:29:37;;;;;;;6.97;4.78;;;23.80;99.90;;;;;;5046659;28;20254;-30
2023/07/17 12:32:05;;;;;;;9.20;4.60;;;23.60;99.90;;;;;;5026986;28;20205;-30
2023/07/17 12:34:36;;;;;;;5.38;4.55;;;23.50;99.90;;;;;;5032152;28;20201;-30
2023/07/17 12:37:06;;;;;;;7.15;3.95;;;23.30;99.90;;;;;;5034614;28;20753;-31
2023/07/17 12:39:36;;;;;;;9.65;4.18;;;23.30;99.90;;;;;;5028907;28;20233;-30
2023/07/17 12:42:03;;;;;;;7.45;4.03;;;23.20;99.90;;;;;;5027610;28;20201;-31
2023/07/17 12:44:33;;;;;;;6.70;4.05;;;23.10;99.90;;;;;;5025580;28;20718;-31
2023/07/17 12:47:02;;;;;;;6.47;4.13;;;23.00;99.90;;;;;;5027638;28;20197;-31
2023/07/17 12:49:29;;;;;;;5.03;3.55;;;23.00;99.90;;;;;;5040956;28;20205;-31
2023/07/17 12:51:57;;;;;;;6.65;3.72;;;23.00;99.90;;;;;;5040530;28;20204;-31
2023/07/17 12:54:29;;;;;;;6.70;3.83;;;23.00;99.90;;;;;;5029067;28;20363;-31
2023/07/17 12:56:58;;;;;;;6.07;3.97;;;23.10;99.90;;;;;;5034235;28;20448;-31
2023/07/17 12:59:28;;;;;;;6.72;4.32;;;23.00;99.90;;;;;;5031593;28;20677;-30